createdAt,value
2018-04-06T00:00:17.838Z,5.77
2018-04-06T00:01:17.841Z,5.78
2018-04-06T00:02:17.836Z,5.78
2018-04-06T00:03:17.847Z,5.78
2018-04-06T00:04:17.842Z,5.78
2018-04-06T00:05:17.850Z,5.78
2018-04-06T00:06:17.852Z,5.77
2018-04-06T00:07:17.851Z,5.78
2018-04-06T00:08:17.870Z,5.75
2018-04-06T00:09:17.866Z,5.78
2018-04-06T00:10:17.873Z,5.66
2018-04-06T00:11:17.907Z,5.49
2018-04-06T00:12:17.861Z,5.35
2018-04-06T00:13:17.883Z,5.25
2018-04-06T00:14:17.875Z,5.29
2018-04-06T00:15:17.883Z,5.29
2018-04-06T00:16:17.886Z,5.11
2018-04-06T00:17:17.878Z,5.05
2018-04-06T00:18:17.889Z,5.11
2018-04-06T00:19:17.923Z,5.16
2018-04-06T00:20:17.901Z,5.22
2018-04-06T00:21:17.903Z,5.14
2018-04-06T00:22:17.921Z,5.07
2018-04-06T00:23:17.898Z,5.04
2018-04-06T00:24:17.901Z,5.11
2018-04-06T00:25:17.990Z,5.1
2018-04-06T00:26:17.939Z,5.12
2018-04-06T00:27:17.923Z,5.15
2018-04-06T00:28:17.922Z,5.15
2018-04-06T00:29:17.928Z,5.15
2018-04-06T00:30:17.932Z,5.18
2018-04-06T00:31:17.970Z,5.19
2018-04-06T00:32:17.927Z,5.22
2018-04-06T00:33:17.956Z,5.19
2018-04-06T00:34:17.936Z,5.19
2018-04-06T00:35:17.940Z,5.21
2018-04-06T00:36:17.942Z,5.18
2018-04-06T00:37:17.944Z,5.23
2018-04-06T00:38:17.972Z,5.25
2018-04-06T00:39:17.943Z,5.28
2018-04-06T00:40:17.969Z,5.25
2018-04-06T00:41:17.976Z,5.26
2018-04-06T00:42:17.953Z,5.25
2018-04-06T00:43:17.981Z,5.28
2018-04-06T00:44:17.965Z,5.23
2018-04-06T00:45:17.964Z,5.25
2018-04-06T00:46:17.983Z,5.23
2018-04-06T00:47:17.970Z,5.28
2018-04-06T00:48:17.997Z,5.26
2018-04-06T00:49:17.981Z,5.25
2018-04-06T00:50:17.977Z,5.28
2018-04-06T00:51:17.980Z,5.3
2018-04-06T00:52:17.981Z,5
2018-04-06T00:53:17.985Z,4.83
2018-04-06T00:54:18.017Z,4.94
2018-04-06T00:55:17.992Z,4.97
2018-04-06T00:56:18.062Z,5.01
2018-04-06T00:57:17.994Z,4.69
2018-04-06T00:58:18.008Z,4.76
2018-04-06T00:59:18.014Z,4.81
2018-04-06T01:00:18.001Z,4.84
2018-04-06T01:01:18.006Z,4.9
2018-04-06T01:02:18.020Z,4.91
2018-04-06T01:03:18.017Z,4.93
2018-04-06T01:04:18.011Z,4.93
2018-04-06T01:05:18.018Z,4.94
2018-04-06T01:06:18.028Z,4.94
2018-04-06T01:07:18.022Z,4.94
2018-04-06T01:08:18.038Z,4.94
2018-04-06T01:09:18.045Z,4.94
2018-04-06T01:10:18.033Z,4.97
2018-04-06T01:11:18.066Z,4.95
2018-04-06T01:12:18.303Z,4.91
2018-04-06T01:13:18.046Z,4.93
2018-04-06T01:14:18.055Z,4.91
2018-04-06T01:15:18.049Z,4.91
2018-04-06T01:16:18.053Z,4.88
2018-04-06T01:17:18.063Z,4.9
2018-04-06T01:18:18.061Z,4.9
2018-04-06T01:19:18.087Z,4.91
2018-04-06T01:20:18.066Z,4.93
2018-04-06T01:21:18.073Z,4.94
2018-04-06T01:22:18.093Z,4.91
2018-04-06T01:23:18.072Z,4.88
2018-04-06T01:24:18.079Z,4.91
2018-04-06T01:25:18.085Z,4.93
2018-04-06T01:26:18.110Z,4.93
2018-04-06T01:27:18.415Z,4.84
2018-04-06T01:28:18.089Z,4.66
2018-04-06T01:29:18.086Z,4.65
2018-04-06T01:30:18.107Z,4.67
2018-04-06T01:31:18.110Z,4.67
2018-04-06T01:32:18.346Z,4.67
2018-04-06T01:33:18.106Z,4.7
2018-04-06T01:34:18.097Z,4.73
2018-04-06T01:35:18.108Z,4.73
2018-04-06T01:36:18.108Z,4.77
2018-04-06T01:37:18.131Z,4.8
2018-04-06T01:38:18.121Z,4.81
2018-04-06T01:39:18.133Z,4.83
2018-04-06T01:40:18.126Z,4.8
2018-04-06T01:41:18.125Z,4.81
2018-04-06T01:42:18.118Z,4.83
2018-04-06T01:43:18.303Z,4.83
2018-04-06T01:44:18.136Z,4.84
2018-04-06T01:45:18.139Z,4.67
2018-04-06T01:46:18.141Z,4.65
2018-04-06T01:47:18.133Z,4.73
2018-04-06T01:48:18.168Z,4.74
2018-04-06T01:49:18.189Z,4.77
2018-04-06T01:50:18.155Z,4.83
2018-04-06T01:51:18.154Z,4.81
2018-04-06T01:52:18.150Z,4.8
2018-04-06T01:53:18.175Z,4.86
2018-04-06T01:54:18.161Z,4.86
2018-04-06T01:55:18.164Z,4.86
2018-04-06T01:56:18.164Z,4.87
2018-04-06T01:57:18.171Z,4.9
2018-04-06T01:58:18.230Z,4.9
2018-04-06T01:59:18.193Z,4.93
2018-04-06T02:00:18.171Z,4.97
2018-04-06T02:01:18.181Z,4.97
2018-04-06T02:02:18.182Z,4.94
2018-04-06T02:03:18.190Z,4.94
2018-04-06T02:04:18.217Z,4.94
2018-04-06T02:05:18.191Z,4.91
2018-04-06T02:06:18.194Z,4.93
2018-04-06T02:07:18.208Z,4.88
2018-04-06T02:08:18.202Z,4.87
2018-04-06T02:09:18.210Z,4.87
2018-04-06T02:10:18.203Z,4.84
2018-04-06T02:11:18.206Z,4.79
2018-04-06T02:12:18.256Z,4.77
2018-04-06T02:13:18.224Z,4.74
2018-04-06T02:14:18.213Z,4.74
2018-04-06T02:15:18.231Z,4.7
2018-04-06T02:16:18.222Z,4.76
2018-04-06T02:17:18.215Z,4.77
2018-04-06T02:18:18.225Z,4.77
2018-04-06T02:19:18.227Z,4.79
2018-04-06T02:20:18.227Z,4.77
2018-04-06T02:21:18.243Z,4.76
2018-04-06T02:22:18.237Z,4.79
2018-04-06T02:23:18.233Z,4.76
2018-04-06T02:24:18.253Z,4.79
2018-04-06T02:25:18.241Z,4.79
2018-04-06T02:26:18.244Z,4.76
2018-04-06T02:27:18.251Z,4.76
2018-04-06T02:28:18.259Z,4.76
2018-04-06T02:29:18.342Z,4.77
2018-04-06T02:30:18.563Z,4.77
2018-04-06T02:31:18.257Z,4.79
2018-04-06T02:32:18.274Z,4.8
2018-04-06T02:33:18.275Z,4.76
2018-04-06T02:34:18.287Z,4.8
2018-04-06T02:35:18.326Z,4.81
2018-04-06T02:36:18.277Z,4.81
2018-04-06T02:37:18.313Z,4.83
2018-04-06T02:38:18.292Z,4.84
2018-04-06T02:39:18.292Z,4.84
2018-04-06T02:40:18.305Z,4.86
2018-04-06T02:41:18.301Z,4.81
2018-04-06T02:42:18.284Z,4.8
2018-04-06T02:43:18.292Z,4.81
2018-04-06T02:44:18.318Z,4.84
2018-04-06T02:45:18.304Z,4.8
2018-04-06T02:46:18.303Z,4.81
2018-04-06T02:47:18.315Z,4.79
2018-04-06T02:48:18.309Z,4.81
2018-04-06T02:49:18.306Z,4.76
2018-04-06T02:50:18.310Z,4.74
2018-04-06T02:51:18.323Z,4.76
2018-04-06T02:52:18.322Z,4.74
2018-04-06T02:53:18.335Z,4.69
2018-04-06T02:54:18.331Z,4.7
2018-04-06T02:55:18.351Z,4.69
2018-04-06T02:56:18.338Z,4.69
2018-04-06T02:57:18.343Z,4.69
2018-04-06T02:58:18.343Z,4.69
2018-04-06T02:59:18.347Z,4.67
2018-04-06T03:00:18.615Z,4.69
2018-04-06T03:01:18.356Z,4.66
2018-04-06T03:02:18.349Z,4.66
2018-04-06T03:03:18.341Z,4.69
2018-04-06T03:04:18.361Z,4.67
2018-04-06T03:05:18.381Z,4.65
2018-04-06T03:06:18.353Z,4.66
2018-04-06T03:07:18.368Z,4.66
2018-04-06T03:08:18.362Z,4.67
2018-04-06T03:09:18.472Z,4.69
2018-04-06T03:10:18.381Z,4.7
2018-04-06T03:11:18.387Z,4.67
2018-04-06T03:12:18.367Z,4.63
2018-04-06T03:13:18.379Z,4.66
2018-04-06T03:14:18.383Z,4.66
2018-04-06T03:15:18.410Z,4.72
2018-04-06T03:16:18.512Z,4.72
2018-04-06T03:17:18.387Z,4.69
2018-04-06T03:18:18.393Z,4.67
2018-04-06T03:19:18.389Z,4.65
2018-04-06T03:20:18.414Z,4.67
2018-04-06T03:21:18.423Z,4.67
2018-04-06T03:22:18.429Z,4.69
2018-04-06T03:23:18.408Z,4.69
2018-04-06T03:24:18.403Z,4.67
2018-04-06T03:25:18.434Z,4.73
2018-04-06T03:26:18.418Z,4.73
2018-04-06T03:27:18.445Z,4.73
2018-04-06T03:28:18.428Z,4.76
2018-04-06T03:29:18.435Z,4.74
2018-04-06T03:30:18.459Z,4.76
2018-04-06T03:31:18.498Z,4.76
2018-04-06T03:32:18.432Z,4.74
2018-04-06T03:33:18.438Z,4.74
2018-04-06T03:34:18.448Z,4.74
2018-04-06T03:35:18.449Z,4.73
2018-04-06T03:36:18.440Z,4.72
2018-04-06T03:37:18.447Z,4.7
2018-04-06T03:38:18.451Z,4.66
2018-04-06T03:39:18.455Z,4.67
2018-04-06T03:40:18.454Z,4.65
2018-04-06T03:41:18.456Z,4.63
2018-04-06T03:42:18.668Z,4.59
2018-04-06T03:43:18.472Z,4.59
2018-04-06T03:44:18.475Z,4.57
2018-04-06T03:45:18.479Z,4.59
2018-04-06T03:46:18.473Z,4.59
2018-04-06T03:47:18.499Z,4.59
2018-04-06T03:48:18.472Z,4.57
2018-04-06T03:49:18.480Z,4.6
2018-04-06T03:50:18.487Z,4.57
2018-04-06T03:51:18.493Z,4.56
2018-04-06T03:52:18.513Z,4.56
2018-04-06T03:53:18.496Z,4.57
2018-04-06T03:54:18.501Z,4.57
2018-04-06T03:55:18.490Z,4.56
2018-04-06T03:56:18.503Z,4.56
2018-04-06T03:57:18.556Z,4.59
2018-04-06T03:58:18.501Z,4.55
2018-04-06T03:59:18.510Z,4.53
2018-04-06T04:00:18.505Z,4.55
2018-04-06T04:01:18.507Z,4.49
2018-04-06T04:02:18.608Z,4.53
2018-04-06T04:03:18.540Z,4.51
2018-04-06T04:04:18.522Z,4.52
2018-04-06T04:05:18.521Z,4.51
2018-04-06T04:06:18.539Z,4.52
2018-04-06T04:07:18.532Z,4.52
2018-04-06T04:08:18.559Z,4.53
2018-04-06T04:09:18.590Z,4.55
2018-04-06T04:10:18.541Z,4.52
2018-04-06T04:11:18.551Z,4.48
2018-04-06T04:12:18.685Z,4.49
2018-04-06T04:13:18.574Z,4.45
2018-04-06T04:14:18.548Z,4.48
2018-04-06T04:15:18.557Z,4.48
2018-04-06T04:16:18.557Z,4.45
2018-04-06T04:17:18.553Z,4.43
2018-04-06T04:18:18.600Z,4.43
2018-04-06T04:19:18.580Z,4.43
2018-04-06T04:20:18.566Z,4.42
2018-04-06T04:21:18.567Z,4.4
2018-04-06T04:22:19.153Z,4.38
2018-04-06T04:23:18.597Z,4.38
2018-04-06T04:24:18.575Z,4.36
2018-04-06T04:25:18.576Z,4.36
2018-04-06T04:26:18.584Z,4.38
2018-04-06T04:27:18.581Z,4.36
2018-04-06T04:28:18.619Z,4.35
2018-04-06T04:29:18.591Z,4.3
2018-04-06T04:30:18.596Z,4.28
2018-04-06T04:31:18.595Z,4.21
2018-04-06T04:32:18.598Z,4.25
2018-04-06T04:33:18.648Z,4.21
2018-04-06T04:34:18.609Z,4.21
2018-04-06T04:35:18.604Z,4.22
2018-04-06T04:36:18.616Z,4.19
2018-04-06T04:37:18.607Z,4.18
2018-04-06T04:38:18.607Z,4.21
2018-04-06T04:39:18.616Z,4.26
2018-04-06T04:40:18.622Z,4.3
2018-04-06T04:41:18.624Z,4.29
2018-04-06T04:42:18.617Z,4.3
2018-04-06T04:43:18.663Z,4.29
2018-04-06T04:44:18.637Z,4.3
2018-04-06T04:45:18.628Z,4.26
2018-04-06T04:46:18.640Z,4.26
2018-04-06T04:47:18.642Z,4.22
2018-04-06T04:48:18.675Z,4.24
2018-04-06T04:49:18.641Z,4.29
2018-04-06T04:50:18.647Z,4.28
2018-04-06T04:51:18.650Z,4.29
2018-04-06T04:52:18.653Z,4.3
2018-04-06T04:53:18.768Z,4.3
2018-04-06T04:54:18.668Z,4.29
2018-04-06T04:55:18.669Z,4.29
2018-04-06T04:56:18.659Z,4.28
2018-04-06T04:57:18.664Z,4.29
2018-04-06T04:58:18.671Z,4.28
2018-04-06T04:59:18.679Z,4.29
2018-04-06T05:00:18.696Z,4.3
2018-04-06T05:01:18.685Z,4.33
2018-04-06T05:02:18.679Z,4.36
2018-04-06T05:03:18.693Z,4.32
2018-04-06T05:04:18.738Z,4.32
2018-04-06T05:05:18.713Z,4.35
2018-04-06T05:06:18.710Z,4.36
2018-04-06T05:07:18.700Z,4.38
2018-04-06T05:08:18.704Z,4.32
2018-04-06T05:09:18.704Z,4.33
2018-04-06T05:10:18.702Z,4.38
2018-04-06T05:11:18.715Z,4.42
2018-04-06T05:12:18.710Z,4.43
2018-04-06T05:13:18.717Z,4.43
2018-04-06T05:14:18.733Z,4.4
2018-04-06T05:15:18.719Z,4.48
2018-04-06T05:16:18.732Z,4.45
2018-04-06T05:17:18.726Z,4.46
2018-04-06T05:18:18.733Z,4.4
2018-04-06T05:19:18.729Z,4.42
2018-04-06T05:20:18.752Z,4.48
2018-04-06T05:21:18.750Z,4.46
2018-04-06T05:22:18.747Z,4.48
2018-04-06T05:23:18.748Z,4.46
2018-04-06T05:24:18.772Z,4.48
2018-04-06T05:25:18.753Z,4.48
2018-04-06T05:26:18.746Z,4.51
2018-04-06T05:27:18.753Z,4.52
2018-04-06T05:28:18.774Z,4.52
2018-04-06T05:29:18.759Z,4.48
2018-04-06T05:30:18.775Z,4.48
2018-04-06T05:31:18.771Z,4.46
2018-04-06T05:32:18.845Z,4.53
2018-04-06T05:33:18.773Z,4.53
2018-04-06T05:34:18.783Z,4.52
2018-04-06T05:35:18.888Z,4.52
2018-04-06T05:36:18.803Z,4.49
2018-04-06T05:37:18.788Z,4.52
2018-04-06T05:38:18.791Z,4.57
2018-04-06T05:39:18.790Z,4.55
2018-04-06T05:40:18.791Z,4.59
2018-04-06T05:41:18.818Z,4.62
2018-04-06T05:42:18.821Z,4.65
2018-04-06T05:43:18.798Z,4.67
2018-04-06T05:44:18.802Z,4.62
2018-04-06T05:45:18.813Z,4.59
2018-04-06T05:46:18.818Z,4.62
2018-04-06T05:47:18.813Z,4.57
2018-04-06T05:48:18.825Z,4.59
2018-04-06T05:49:18.823Z,4.59
2018-04-06T05:50:18.818Z,4.59
2018-04-06T05:51:18.822Z,4.62
2018-04-06T05:52:18.885Z,4.62
2018-04-06T05:53:18.827Z,4.6
2018-04-06T05:54:18.834Z,4.63
2018-04-06T05:55:18.841Z,4.66
2018-04-06T05:56:18.855Z,4.66
2018-04-06T05:57:18.865Z,4.63
2018-04-06T05:58:18.978Z,4.69
2018-04-06T05:59:18.844Z,4.67
2018-04-06T06:00:18.852Z,4.67
2018-04-06T06:01:18.856Z,4.67
2018-04-06T06:02:18.898Z,4.69
2018-04-06T06:03:18.859Z,4.72
2018-04-06T06:04:18.856Z,4.74
2018-04-06T06:05:18.871Z,4.79
2018-04-06T06:06:18.945Z,4.8
2018-04-06T06:07:18.956Z,4.81
2018-04-06T06:08:18.886Z,4.81
2018-04-06T06:09:18.881Z,4.81
2018-04-06T06:10:18.883Z,4.81
2018-04-06T06:11:18.928Z,4.84
2018-04-06T06:12:18.902Z,4.83
2018-04-06T06:13:18.903Z,4.84
2018-04-06T06:14:18.895Z,4.86
2018-04-06T06:15:18.899Z,4.86
2018-04-06T06:16:18.897Z,4.87
2018-04-06T06:17:18.921Z,4.9
2018-04-06T06:18:18.907Z,4.88
2018-04-06T06:19:18.897Z,4.93
2018-04-06T06:20:18.905Z,4.95
2018-04-06T06:21:18.913Z,4.98
2018-04-06T06:22:18.935Z,4.97
2018-04-06T06:23:19.016Z,5
2018-04-06T06:24:18.921Z,4.98
2018-04-06T06:25:18.922Z,4.98
2018-04-06T06:26:18.929Z,5
2018-04-06T06:27:18.969Z,4.97
2018-04-06T06:28:18.934Z,5
2018-04-06T06:29:18.932Z,5.07
2018-04-06T06:30:18.941Z,5.05
2018-04-06T06:31:18.950Z,5.02
2018-04-06T06:32:18.968Z,5.05
2018-04-06T06:33:18.944Z,5.05
2018-04-06T06:34:18.946Z,5.08
2018-04-06T06:35:18.950Z,5.08
2018-04-06T06:36:18.947Z,5.1
2018-04-06T06:37:19.037Z,5.12
2018-04-06T06:38:18.959Z,5.14
2018-04-06T06:39:18.966Z,5.15
2018-04-06T06:40:18.951Z,5.19
2018-04-06T06:41:18.977Z,5.18
2018-04-06T06:42:18.969Z,5.16
2018-04-06T06:43:18.972Z,5.18
2018-04-06T06:44:18.985Z,5.23
2018-04-06T06:45:18.976Z,5.23
2018-04-06T06:46:18.993Z,5.23
2018-04-06T06:47:18.983Z,5.26
2018-04-06T06:48:18.979Z,5.26
2018-04-06T06:49:18.982Z,5.3
2018-04-06T06:50:18.989Z,5.3
2018-04-06T06:51:18.999Z,5.35
2018-04-06T06:52:19.012Z,5.36
2018-04-06T06:53:19.024Z,5.38
2018-04-06T06:54:19.228Z,5.38
2018-04-06T06:55:19.000Z,5.39
2018-04-06T06:56:19.010Z,5.46
2018-04-06T06:57:19.009Z,5.47
2018-04-06T06:58:19.032Z,5.5
2018-04-06T06:59:19.033Z,5.56
2018-04-06T07:00:19.012Z,5.56
2018-04-06T07:01:19.015Z,5.59
2018-04-06T07:02:19.051Z,5.62
2018-04-06T07:03:19.210Z,5.62
2018-04-06T07:04:19.034Z,5.66
2018-04-06T07:05:19.035Z,5.64
2018-04-06T07:06:19.040Z,5.64
2018-04-06T07:07:19.035Z,5.69
2018-04-06T07:08:19.153Z,5.71
2018-04-06T07:09:19.045Z,5.77
2018-04-06T07:10:19.046Z,5.8
2018-04-06T07:11:19.050Z,5.83
2018-04-06T07:12:19.052Z,5.88
2018-04-06T07:13:19.047Z,5.91
2018-04-06T07:14:28.355Z,5.91
2018-04-06T07:15:28.408Z,5.95
2018-04-06T07:16:28.424Z,6.02
2018-04-06T07:17:28.348Z,6.05
2018-04-06T07:18:28.356Z,6.08
2018-04-06T07:19:28.367Z,6.09
2018-04-06T07:20:28.373Z,6.15
2018-04-06T07:21:28.372Z,6.15
2018-04-06T07:22:28.351Z,6.2
2018-04-06T07:23:28.391Z,6.23
2018-04-06T07:24:28.360Z,6.23
2018-04-06T07:25:28.345Z,6.28
2018-04-06T07:26:28.344Z,6.3
2018-04-06T07:27:28.343Z,6.35
2018-04-06T07:28:28.368Z,6.36
2018-04-06T07:29:28.353Z,6.37
2018-04-06T07:30:28.378Z,6.46
2018-04-06T07:31:28.354Z,6.44
2018-04-06T07:32:28.438Z,6.48
2018-04-06T07:33:28.332Z,6.5
2018-04-06T07:34:28.326Z,6.51
2018-04-06T07:35:28.330Z,6.51
2018-04-06T07:36:28.329Z,6.54
2018-04-06T07:37:28.332Z,6.6
2018-04-06T07:38:28.325Z,6.6
2018-04-06T07:39:28.345Z,6.65
2018-04-06T07:40:28.326Z,6.71
2018-04-06T07:41:28.324Z,6.73
2018-04-06T07:42:28.317Z,6.75
2018-04-06T07:43:28.336Z,6.8
2018-04-06T07:44:28.562Z,6.8
2018-04-06T07:45:28.321Z,6.81
2018-04-06T07:46:28.304Z,6.83
2018-04-06T07:47:28.318Z,6.85
2018-04-06T07:48:28.303Z,6.85
2018-04-06T07:49:28.323Z,6.9
2018-04-06T07:50:28.308Z,6.91
2018-04-06T07:51:28.340Z,6.99
2018-04-06T07:52:28.300Z,7.02
2018-04-06T07:53:28.341Z,7.01
2018-04-06T07:54:28.284Z,7.06
2018-04-06T07:55:28.292Z,7.09
2018-04-06T07:56:28.303Z,7.11
2018-04-06T07:57:28.282Z,7.16
2018-04-06T07:58:28.286Z,7.2
2018-04-06T07:59:28.280Z,7.18
2018-04-06T08:00:28.280Z,7.2
2018-04-06T08:01:28.300Z,7.22
2018-04-06T08:02:28.285Z,7.26
2018-04-06T08:03:28.327Z,7.3
2018-04-06T08:04:28.277Z,7.34
2018-04-06T08:05:28.284Z,7.37
2018-04-06T08:06:28.276Z,7.41
2018-04-06T08:07:28.276Z,7.4
2018-04-06T08:08:28.310Z,7.47
2018-04-06T08:09:28.280Z,7.57
2018-04-06T08:10:28.273Z,7.58
2018-04-06T08:11:28.286Z,7.62
2018-04-06T08:12:28.403Z,7.67
2018-04-06T08:13:28.399Z,7.72
2018-04-06T08:14:28.260Z,7.78
2018-04-06T08:15:28.357Z,7.81
2018-04-06T08:16:28.271Z,7.82
2018-04-06T08:17:28.250Z,7.86
2018-04-06T08:18:28.289Z,7.91
2018-04-06T08:19:28.259Z,7.99
2018-04-06T08:20:28.251Z,8.05
2018-04-06T08:21:28.254Z,8.09
2018-04-06T08:22:28.258Z,8.12
2018-04-06T08:23:28.280Z,8.17
2018-04-06T08:24:28.246Z,8.21
2018-04-06T08:25:28.251Z,8.26
2018-04-06T08:26:28.427Z,8.24
2018-04-06T08:27:28.237Z,8.26
2018-04-06T08:28:28.338Z,8.29
2018-04-06T08:29:28.257Z,8.3
2018-04-06T08:30:28.238Z,8.36
2018-04-06T08:31:28.245Z,8.38
2018-04-06T08:32:28.234Z,8.37
2018-04-06T08:33:28.250Z,8.44
2018-04-06T08:34:28.246Z,8.44
2018-04-06T08:35:28.240Z,8.51
2018-04-06T08:36:28.232Z,8.55
2018-04-06T08:37:28.242Z,8.51
2018-04-06T08:38:28.281Z,8.58
2018-04-06T08:39:28.252Z,8.59
2018-04-06T08:40:28.254Z,8.65
2018-04-06T08:41:28.230Z,8.68
2018-04-06T08:42:28.390Z,8.71
2018-04-06T08:43:28.224Z,8.74
2018-04-06T08:44:28.221Z,8.79
2018-04-06T08:45:28.217Z,8.82
2018-04-06T08:46:28.275Z,8.85
2018-04-06T08:47:28.229Z,8.86
2018-04-06T08:48:28.208Z,8.92
2018-04-06T08:49:28.217Z,8.98
2018-04-06T08:50:28.215Z,9.02
2018-04-06T08:51:28.222Z,9
2018-04-06T08:52:28.202Z,9.02
2018-04-06T08:53:28.229Z,9.04
2018-04-06T08:54:28.232Z,9.06
2018-04-06T08:55:28.187Z,9.09
2018-04-06T08:56:28.194Z,9.16
2018-04-06T08:57:28.201Z,9.21
2018-04-06T08:58:28.193Z,9.2
2018-04-06T08:59:28.205Z,9.21
2018-04-06T09:00:28.186Z,9.23
2018-04-06T09:01:28.232Z,9.29
2018-04-06T09:02:28.225Z,9.37
2018-04-06T09:03:28.197Z,9.42
2018-04-06T09:04:28.213Z,9.49
2018-04-06T09:05:28.180Z,9.52
2018-04-06T09:06:28.198Z,9.49
2018-04-06T09:07:28.379Z,9.51
2018-04-06T09:08:28.173Z,9.51
2018-04-06T09:09:28.166Z,9.58
2018-04-06T09:10:28.194Z,9.58
2018-04-06T09:11:28.165Z,9.58
2018-04-06T09:12:28.182Z,9.58
2018-04-06T09:13:28.173Z,9.63
2018-04-06T09:14:28.187Z,9.73
2018-04-06T09:15:28.163Z,9.82
2018-04-06T09:16:28.190Z,9.86
2018-04-06T09:17:28.245Z,9.93
2018-04-06T09:18:28.200Z,10.07
2018-04-06T09:19:28.198Z,10.11
2018-04-06T09:20:28.171Z,10.13
2018-04-06T09:21:28.158Z,10.14
2018-04-06T09:22:28.154Z,10.17
2018-04-06T09:23:28.157Z,10.23
2018-04-06T09:24:28.175Z,10.28
2018-04-06T09:25:28.151Z,10.35
2018-04-06T09:26:28.147Z,10.38
2018-04-06T09:27:28.169Z,10.44
2018-04-06T09:28:28.145Z,10.44
2018-04-06T09:29:28.154Z,10.42
2018-04-06T09:30:28.140Z,10.48
2018-04-06T09:31:28.150Z,10.49
2018-04-06T09:32:28.160Z,10.53
2018-04-06T09:33:28.138Z,10.56
2018-04-06T09:34:28.250Z,10.61
2018-04-06T09:35:28.150Z,10.66
2018-04-06T09:36:28.137Z,10.64
2018-04-06T09:37:28.161Z,10.65
2018-04-06T09:38:28.131Z,10.69
2018-04-06T09:39:28.136Z,10.75
2018-04-06T09:40:28.131Z,10.82
2018-04-06T09:41:28.135Z,10.83
2018-04-06T09:42:28.128Z,10.87
2018-04-06T09:43:28.150Z,10.89
2018-04-06T09:44:28.115Z,10.86
2018-04-06T09:45:28.110Z,10.89
2018-04-06T09:46:28.114Z,10.94
2018-04-06T09:47:28.149Z,11.07
2018-04-06T09:48:28.351Z,11.12
2018-04-06T09:49:28.115Z,11.22
2018-04-06T09:50:28.126Z,11.24
2018-04-06T09:51:28.109Z,11.21
2018-04-06T09:52:28.104Z,11.25
2018-04-06T09:53:28.134Z,11.35
2018-04-06T09:54:28.094Z,11.32
2018-04-06T09:55:28.102Z,11.32
2018-04-06T09:56:28.094Z,11.38
2018-04-06T09:57:28.104Z,11.41
2018-04-06T09:58:28.122Z,11.44
2018-04-06T09:59:28.096Z,11.55
2018-04-06T10:00:28.093Z,11.56
2018-04-06T10:01:28.103Z,11.61
2018-04-06T10:02:28.097Z,11.64
2018-04-06T10:03:28.118Z,11.65
2018-04-06T10:04:28.090Z,11.62
2018-04-06T10:05:28.098Z,11.75
2018-04-06T10:06:28.080Z,11.77
2018-04-06T10:07:28.097Z,11.77
2018-04-06T10:08:28.102Z,11.87
2018-04-06T10:09:28.084Z,11.94
2018-04-06T10:10:28.091Z,11.96
2018-04-06T10:11:28.083Z,11.96
2018-04-06T10:12:28.087Z,11.98
2018-04-06T10:13:28.085Z,12.04
2018-04-06T10:14:28.085Z,12.16
2018-04-06T10:15:28.070Z,12.2
2018-04-06T10:16:28.061Z,12.2
2018-04-06T10:17:28.069Z,12.25
2018-04-06T10:18:28.082Z,12.17
2018-04-06T10:19:28.117Z,12.16
2018-04-06T10:20:28.079Z,12.11
2018-04-06T10:21:28.195Z,12.17
2018-04-06T10:22:28.068Z,12.17
2018-04-06T10:23:28.087Z,12.31
2018-04-06T10:24:28.060Z,12.38
2018-04-06T10:25:28.062Z,12.42
2018-04-06T10:26:28.058Z,12.39
2018-04-06T10:27:28.060Z,12.44
2018-04-06T10:28:28.063Z,12.39
2018-04-06T10:29:28.080Z,12.45
2018-04-06T10:30:28.070Z,12.46
2018-04-06T10:31:28.047Z,12.48
2018-04-06T10:32:28.047Z,12.49
2018-04-06T10:33:28.070Z,12.53
2018-04-06T10:34:28.072Z,12.59
2018-04-06T10:35:28.044Z,12.56
2018-04-06T10:36:28.040Z,12.63
2018-04-06T10:37:28.047Z,12.65
2018-04-06T10:38:28.045Z,12.76
2018-04-06T10:39:28.057Z,12.86
2018-04-06T10:40:28.201Z,12.91
2018-04-06T10:41:28.223Z,12.94
2018-04-06T10:42:28.028Z,12.96
2018-04-06T10:43:28.046Z,12.96
2018-04-06T10:44:28.032Z,12.94
2018-04-06T10:45:28.005Z,12.9
2018-04-06T10:46:28.239Z,12.94
2018-04-06T10:47:28.018Z,12.86
2018-04-06T10:48:28.044Z,12.88
2018-04-06T10:49:28.010Z,12.93
2018-04-06T10:50:28.051Z,12.94
2018-04-06T10:51:28.023Z,12.99
2018-04-06T10:52:28.024Z,12.99
2018-04-06T10:53:28.154Z,13.08
2018-04-06T10:54:28.031Z,13.08
2018-04-06T10:55:28.011Z,13.07
2018-04-06T10:56:28.159Z,13.06
2018-04-06T10:57:28.163Z,13.08
2018-04-06T10:58:28.042Z,13.08
2018-04-06T10:59:28.017Z,13.08
2018-04-06T11:00:28.022Z,13.14
2018-04-06T11:01:28.017Z,13.18
2018-04-06T11:02:28.023Z,13.27
2018-04-06T11:03:28.031Z,13.31
2018-04-06T11:04:28.010Z,13.36
2018-04-06T11:05:28.040Z,13.34
2018-04-06T11:06:28.002Z,13.35
2018-04-06T11:07:28.177Z,13.39
2018-04-06T11:08:28.002Z,13.36
2018-04-06T11:09:27.990Z,13.43
2018-04-06T11:10:27.991Z,13.5
2018-04-06T11:11:28.123Z,13.57
2018-04-06T11:12:27.993Z,13.59
2018-04-06T11:13:27.983Z,13.52
2018-04-06T11:14:28.148Z,13.49
2018-04-06T11:15:27.978Z,13.52
2018-04-06T11:16:28.162Z,13.47
2018-04-06T11:17:27.969Z,13.46
2018-04-06T11:18:29.088Z,13.53
2018-04-06T11:19:27.999Z,13.56
2018-04-06T11:20:28.060Z,13.59
2018-04-06T11:21:28.267Z,13.6
2018-04-06T11:22:29.626Z,13.66
2018-04-06T11:23:27.997Z,13.72
2018-04-06T11:24:28.066Z,13.73
2018-04-06T11:25:27.961Z,13.74
2018-04-06T11:26:28.273Z,13.83
2018-04-06T11:27:28.053Z,13.82
2018-04-06T11:28:27.969Z,13.87
2018-04-06T11:29:27.951Z,13.93
2018-04-06T11:30:27.983Z,13.98
2018-04-06T11:31:28.026Z,13.97
2018-04-06T11:32:27.978Z,14.04
2018-04-06T11:33:28.963Z,14.08
2018-04-06T11:34:27.989Z,14.14
2018-04-06T11:35:28.025Z,14.18
2018-04-06T11:36:27.985Z,14.19
2018-04-06T11:37:28.006Z,14.29
2018-04-06T11:38:27.953Z,14.28
2018-04-06T11:39:27.959Z,14.33
2018-04-06T11:40:27.940Z,14.33
2018-04-06T11:41:27.962Z,14.27
2018-04-06T11:42:27.966Z,14.24
2018-04-06T11:43:27.950Z,14.25
2018-04-06T11:44:27.940Z,14.28
2018-04-06T11:45:27.997Z,14.24
2018-04-06T11:46:27.940Z,14.33
2018-04-06T11:47:27.940Z,14.33
2018-04-06T11:48:27.952Z,14.33
2018-04-06T11:49:27.934Z,14.42
2018-04-06T11:50:27.930Z,14.45
2018-04-06T11:51:29.754Z,14.46
2018-04-06T11:52:27.929Z,14.53
2018-04-06T11:53:27.937Z,14.62
2018-04-06T11:54:27.949Z,14.66
2018-04-06T11:55:27.937Z,14.72
2018-04-06T11:56:27.936Z,14.73
2018-04-06T11:57:27.938Z,14.76
2018-04-06T11:58:27.916Z,14.8
2018-04-06T11:59:27.944Z,14.83
2018-04-06T12:00:27.922Z,14.87
2018-04-06T12:01:27.920Z,14.84
2018-04-06T12:02:27.912Z,14.83
2018-04-06T12:03:27.906Z,14.76
2018-04-06T12:04:27.943Z,14.8
2018-04-06T12:05:27.922Z,14.84
2018-04-06T12:06:27.916Z,14.9
2018-04-06T12:07:27.909Z,14.87
2018-04-06T12:08:27.911Z,14.87
2018-04-06T12:09:27.918Z,14.9
2018-04-06T12:10:27.924Z,14.95
2018-04-06T12:11:27.892Z,15
2018-04-06T12:12:27.902Z,14.77
2018-04-06T12:13:27.893Z,14.87
2018-04-06T12:14:27.917Z,14.95
2018-04-06T12:15:27.918Z,15.02
2018-04-06T12:16:27.900Z,15.14
2018-04-06T12:17:27.888Z,15.26
2018-04-06T12:18:27.899Z,15.25
2018-04-06T12:19:27.891Z,15.26
2018-04-06T12:20:27.893Z,15.25
2018-04-06T12:21:27.923Z,15.28
2018-04-06T12:22:27.939Z,15.34
2018-04-06T12:23:27.883Z,15.36
2018-04-06T12:24:27.892Z,15.45
2018-04-06T12:25:27.889Z,15.47
2018-04-06T12:26:27.940Z,15.46
2018-04-06T12:27:27.881Z,15.57
2018-04-06T12:28:27.876Z,15.59
2018-04-06T12:29:27.872Z,15.47
2018-04-06T12:30:27.884Z,15.45
2018-04-06T12:31:27.886Z,15.46
2018-04-06T12:32:27.882Z,15.43
2018-04-06T12:33:27.867Z,15.47
2018-04-06T12:34:27.858Z,15.5
2018-04-06T12:35:28.206Z,15.54
2018-04-06T12:36:27.862Z,15.6
2018-04-06T12:37:27.887Z,15.6
2018-04-06T12:38:27.878Z,15.71
2018-04-06T12:39:27.872Z,15.77
2018-04-06T12:40:27.878Z,15.84
2018-04-06T12:41:27.873Z,15.82
2018-04-06T12:42:27.854Z,15.88
2018-04-06T12:43:27.863Z,15.81
2018-04-06T12:44:27.859Z,15.87
2018-04-06T12:45:27.872Z,15.91
2018-04-06T12:46:27.878Z,15.91
2018-04-06T12:47:27.852Z,15.95
2018-04-06T12:48:27.856Z,15.91
2018-04-06T12:49:27.861Z,16.02
2018-04-06T12:50:27.883Z,16.04
2018-04-06T12:51:27.850Z,16.07
2018-04-06T12:52:27.867Z,16.18
2018-04-06T12:53:27.928Z,16.31
2018-04-06T12:54:27.851Z,16.28
2018-04-06T12:55:27.843Z,16.36
2018-04-06T12:56:27.846Z,16.42
2018-04-06T12:57:27.844Z,16.36
2018-04-06T12:58:27.866Z,16.4
2018-04-06T12:59:27.830Z,16.37
2018-04-06T13:00:27.866Z,16.45
2018-04-06T13:01:27.850Z,16.43
2018-04-06T13:02:27.836Z,16.5
2018-04-06T13:03:27.847Z,16.54
2018-04-06T13:04:27.834Z,16.64
2018-04-06T13:05:27.852Z,16.62
2018-04-06T13:06:27.823Z,16.68
2018-04-06T13:07:27.821Z,16.66
2018-04-06T13:08:27.824Z,16.68
2018-04-06T13:09:27.814Z,16.74
2018-04-06T13:10:28.024Z,16.78
2018-04-06T13:11:27.823Z,16.54
2018-04-06T13:12:27.852Z,16.36
2018-04-06T13:13:27.806Z,16.53